Aviation Digital Data Service (ADDS)

Output produced by METARs form (1942 UTC 28 July 2015)
found at http://aviationweather.gov/adds/metars/
 
KCAK 281730Z 2818/2918 07007KT P6SM FEW050 
     FM291200 15010KT P6SM FEW250